createdAt,value
2023-01-20T00:01:38.756Z,99930.03
2023-01-20T00:04:05.758Z,99932.69
2023-01-20T00:06:32.929Z,99940.63
2023-01-20T00:09:01.466Z,99944.13
2023-01-20T00:11:28.956Z,99945.34
2023-01-20T00:13:57.404Z,99951.66
2023-01-20T00:16:24.548Z,99954.50
2023-01-20T00:18:51.458Z,99954.69
2023-01-20T00:21:18.839Z,99958.53
2023-01-20T00:23:46.940Z,99960.34
2023-01-20T00:26:19.663Z,99961.00
2023-01-20T00:28:47.457Z,99967.03
2023-01-20T00:31:15.194Z,99963.75
2023-01-20T00:33:41.987Z,99973.72
2023-01-20T00:36:09.058Z,99971.97
2023-01-20T00:38:36.023Z,99971.47
2023-01-20T00:41:03.073Z,99978.16
2023-01-20T00:43:29.637Z,99978.50
2023-01-20T00:45:56.161Z,99985.84
2023-01-20T00:48:22.714Z,99987.03
2023-01-20T00:50:49.451Z,99988.22
2023-01-20T00:53:15.876Z,99985.63
2023-01-20T00:55:42.419Z,99992.25
2023-01-20T00:58:08.931Z,99992.59
2023-01-20T01:00:35.857Z,99996.63
2023-01-20T01:03:02.763Z,100002.31
2023-01-20T01:05:29.281Z,100005.97
2023-01-20T01:07:55.781Z,100005.16
2023-01-20T01:10:22.281Z,100012.91
2023-01-20T01:12:48.816Z,100013.28
2023-01-20T01:15:15.584Z,100007.13
2023-01-20T01:17:44.002Z,100017.69
2023-01-20T01:20:12.450Z,100021.88
2023-01-20T01:22:39.268Z,100021.44
2023-01-20T01:25:05.924Z,100014.38
2023-01-20T01:27:32.615Z,100023.91
2023-01-20T01:29:59.123Z,100025.91
2023-01-20T01:32:25.679Z,100026.91
2023-01-20T01:34:52.168Z,100030.59
2023-01-20T01:37:18.826Z,100031.41
2023-01-20T01:39:45.441Z,100038.53
2023-01-20T01:42:13.347Z,100047.13
2023-01-20T01:45:12.402Z,100045.03
2023-01-20T01:47:57.948Z,100042.09
2023-01-20T01:50:31.069Z,100043.09
2023-01-20T01:52:57.846Z,100037.34
2023-01-20T01:55:27.112Z,100037.28
2023-01-20T01:57:56.136Z,100044.75
2023-01-20T02:00:22.952Z,100038.97
2023-01-20T02:02:49.536Z,100038.91
2023-01-20T02:05:17.650Z,100040.25
2023-01-20T02:07:47.564Z,100049.25
2023-01-20T02:10:16.150Z,100041.47
2023-01-20T02:12:47.331Z,100058.41
2023-01-20T02:15:14.481Z,100055.09
2023-01-20T02:17:53.988Z,100059.41
2023-01-20T02:20:47.884Z,100051.34
2023-01-20T02:23:32.553Z,100058.41
2023-01-20T02:26:36.098Z,100059.97
2023-01-20T02:29:14.858Z,100064.63
2023-01-20T02:32:25.717Z,100071.22
2023-01-20T02:34:55.754Z,100069.81
2023-01-20T02:37:26.880Z,100073.94
2023-01-20T02:40:13.034Z,100075.97
2023-01-20T02:42:43.223Z,100078.88
2023-01-20T02:45:16.240Z,100081.91
2023-01-20T02:48:06.043Z,100086.94
2023-01-20T02:50:43.745Z,100082.38
2023-01-20T02:53:13.643Z,100088.88
2023-01-20T02:55:47.296Z,100091.16
2023-01-20T02:58:19.582Z,100086.84
2023-01-20T03:00:58.163Z,100094.47
2023-01-20T03:03:30.710Z,100093.81
2023-01-20T03:06:00.563Z,100091.34
2023-01-20T03:08:30.858Z,100089.50
2023-01-20T03:11:04.022Z,100090.16
2023-01-20T03:13:52.595Z,100095.84
2023-01-20T03:16:22.469Z,100102.88
2023-01-20T03:18:50.364Z,100102.06
2023-01-20T03:21:17.259Z,100094.91
2023-01-20T03:23:50.623Z,100099.69
2023-01-20T03:26:19.666Z,100103.34
2023-01-20T03:28:48.852Z,100101.69
2023-01-20T03:31:18.094Z,100103.34
2023-01-20T03:33:47.088Z,100106.28
2023-01-20T03:36:15.411Z,100114.44
2023-01-20T03:38:43.744Z,100120.56
2023-01-20T03:41:24.382Z,100129.28
2023-01-20T03:43:53.631Z,100128.00
2023-01-20T03:46:32.635Z,100134.56
2023-01-20T03:49:17.928Z,100138.69
2023-01-20T03:51:54.502Z,100141.53
2023-01-20T03:54:27.156Z,100146.38
2023-01-20T03:56:58.112Z,100145.09
2023-01-20T03:59:25.459Z,100144.09
2023-01-20T04:01:54.181Z,100144.91
2023-01-20T04:04:21.569Z,100143.44
2023-01-20T04:06:50.879Z,100149.41
2023-01-20T04:09:23.924Z,100149.41
2023-01-20T04:11:50.938Z,100152.41
2023-01-20T04:14:17.676Z,100146.28
2023-01-20T04:16:50.242Z,100154.19
2023-01-20T04:19:16.752Z,100151.22
2023-01-20T04:21:48.575Z,100158.19
2023-01-20T04:24:19.269Z,100155.34
2023-01-20T04:26:45.832Z,100154.44
2023-01-20T04:29:13.326Z,100159.72
2023-01-20T04:31:39.992Z,100160.06
2023-01-20T04:34:06.757Z,100167.03
2023-01-20T04:36:33.245Z,100161.72
2023-01-20T04:38:59.756Z,100159.25
2023-01-20T04:41:26.225Z,100164.56
2023-01-20T04:43:52.788Z,100171.06
2023-01-20T04:46:19.649Z,100169.59
2023-01-20T04:48:46.501Z,100171.75
2023-01-20T04:51:13.250Z,100177.06
2023-01-20T04:53:39.884Z,100178.09
2023-01-20T04:56:12.086Z,100186.06
2023-01-20T04:58:39.397Z,100183.44
2023-01-20T05:01:05.982Z,100186.47
2023-01-20T05:03:32.597Z,100188.50
2023-01-20T05:05:59.100Z,100186.84
2023-01-20T05:08:25.591Z,100185.34
2023-01-20T05:10:52.101Z,100186.34
2023-01-20T05:13:18.636Z,100192.84
2023-01-20T05:15:45.292Z,100183.81
2023-01-20T05:18:11.880Z,100187.78
2023-01-20T05:20:38.348Z,100189.53
2023-01-20T05:23:04.985Z,100199.38
2023-01-20T05:25:31.504Z,100194.88
2023-01-20T05:27:58.900Z,100200.63
2023-01-20T05:30:25.545Z,100197.72
2023-01-20T05:32:52.330Z,100199.72
2023-01-20T05:35:18.906Z,100201.88
2023-01-20T05:37:45.747Z,100202.72
2023-01-20T05:40:12.553Z,100200.13
2023-01-20T05:42:39.589Z,100212.41
2023-01-20T05:45:06.953Z,100211.59
2023-01-20T05:47:33.448Z,100215.28
2023-01-20T05:49:59.881Z,100213.22
2023-01-20T05:52:26.355Z,100218.91
2023-01-20T05:54:52.809Z,100215.31
2023-01-20T05:57:19.271Z,100211.72
2023-01-20T05:59:47.760Z,100231.47
2023-01-20T06:02:18.800Z,100237.25
2023-01-20T06:04:49.046Z,100239.97
2023-01-20T06:07:15.766Z,100235.47
2023-01-20T06:09:42.350Z,100243.88
2023-01-20T06:12:08.860Z,100245.94
2023-01-20T06:14:35.308Z,100254.09
2023-01-20T06:17:02.002Z,100255.91
2023-01-20T06:19:28.478Z,100257.56
2023-01-20T06:21:54.982Z,100254.72
2023-01-20T06:24:21.442Z,100261.31
2023-01-20T06:26:50.947Z,100264.03
2023-01-20T06:29:17.713Z,100266.50
2023-01-20T06:31:44.892Z,100269.00
2023-01-20T06:34:12.140Z,100279.56
2023-01-20T06:36:38.906Z,100280.63
2023-01-20T06:39:05.269Z,100285.47
2023-01-20T06:41:31.780Z,100283.69
2023-01-20T06:43:58.290Z,100289.72
2023-01-20T06:46:24.807Z,100298.41
2023-01-20T06:48:51.722Z,100296.47
2023-01-20T06:51:20.023Z,100304.13
2023-01-20T06:53:47.299Z,100304.44
2023-01-20T06:56:15.557Z,100305.00
2023-01-20T06:58:42.528Z,100315.97
2023-01-20T07:01:30.331Z,100323.03
2023-01-20T07:03:56.909Z,100317.34
2023-01-20T07:06:32.729Z,100330.03
2023-01-20T07:09:00.391Z,100324.47
2023-01-20T07:11:28.562Z,100336.28
2023-01-20T07:13:55.020Z,100335.94
2023-01-20T07:16:21.574Z,100332.81
2023-01-20T07:18:50.435Z,100348.72
2023-01-20T07:21:17.834Z,100351.25
2023-01-20T07:23:44.578Z,100340.19
2023-01-20T07:26:13.377Z,100349.75
2023-01-20T07:28:40.261Z,100345.16
2023-01-20T07:31:09.041Z,100352.94
2023-01-20T07:33:36.829Z,100349.97
2023-01-20T07:36:04.262Z,100360.75
2023-01-20T07:38:31.169Z,100353.16
2023-01-20T07:41:04.746Z,100357.28
2023-01-20T07:43:32.046Z,100365.75
2023-01-20T07:46:00.321Z,100358.78
2023-01-20T07:48:28.008Z,100372.22
2023-01-20T07:51:02.225Z,100370.53
2023-01-20T07:53:29.616Z,100377.00
2023-01-20T07:55:56.059Z,100381.84
2023-01-20T07:58:22.587Z,100387.97
2023-01-20T08:00:49.239Z,100378.69
2023-01-20T08:03:16.400Z,100385.97
2023-01-20T08:05:43.091Z,100389.66
2023-01-20T08:08:09.648Z,100402.06
2023-01-20T08:10:37.279Z,100400.44
2023-01-20T08:13:04.003Z,100401.59
2023-01-20T08:15:30.695Z,100410.19
2023-01-20T08:17:58.696Z,100410.19
2023-01-20T08:20:25.303Z,100411.84
2023-01-20T08:22:51.856Z,100417.97
2023-01-20T08:25:18.382Z,100422.97
2023-01-20T08:27:47.415Z,100430.56
2023-01-20T08:30:14.129Z,100427.25
2023-01-20T08:32:40.662Z,100421.25
2023-01-20T08:35:07.421Z,100425.72
2023-01-20T08:37:36.807Z,100433.47
2023-01-20T08:40:06.612Z,100438.91
2023-01-20T08:42:33.157Z,100443.19
2023-01-20T08:44:59.853Z,100447.16
2023-01-20T08:47:26.387Z,100453.03
2023-01-20T08:49:54.018Z,100448.03
2023-01-20T08:52:20.600Z,100453.97
2023-01-20T08:54:47.290Z,100462.56
2023-01-20T08:57:15.187Z,100456.03
2023-01-20T08:59:41.773Z,100450.84
2023-01-20T09:02:11.970Z,100462.72
2023-01-20T09:04:38.712Z,100456.34
2023-01-20T09:07:05.564Z,100466.75
2023-01-20T09:09:32.046Z,100463.72
2023-01-20T09:11:58.618Z,100459.94
2023-01-20T09:14:25.457Z,100464.03
2023-01-20T09:16:51.960Z,100460.19
2023-01-20T09:32:02.452Z,100482.63
2023-01-20T09:34:29.649Z,100484.47
2023-01-20T09:37:21.531Z,100487.97
2023-01-20T09:40:06.806Z,100488.16
2023-01-20T09:43:20.008Z,100491.88
2023-01-20T09:46:28.396Z,100493.06
2023-01-20T09:49:16.768Z,100495.16
2023-01-20T09:52:15.157Z,100496.16
2023-01-20T09:54:47.779Z,100501.97
2023-01-20T09:57:15.064Z,100501.50
2023-01-20T09:59:49.929Z,100504.75
2023-01-20T10:02:28.392Z,100500.34
2023-01-20T10:05:00.690Z,100496.34
2023-01-20T10:08:02.132Z,100503.06
2023-01-20T10:10:40.071Z,100503.16
2023-01-20T10:13:10.987Z,100507.56
2023-01-20T10:15:47.381Z,100508.66
2023-01-20T10:18:35.411Z,100514.50
2023-01-20T10:21:08.359Z,100510.50
2023-01-20T10:23:49.113Z,100508.78
2023-01-20T10:26:21.609Z,100512.22
2023-01-20T10:28:55.660Z,100514.09
2023-01-20T10:31:28.403Z,100520.84
2023-01-20T10:34:01.795Z,100515.16
2023-01-20T10:36:30.357Z,100519.06
2023-01-20T10:39:04.509Z,100515.44
2023-01-20T10:41:30.989Z,100517.50
2023-01-20T10:43:59.729Z,100516.72
2023-01-20T10:46:58.418Z,100520.69
2023-01-20T10:49:37.117Z,100526.69
2023-01-20T10:52:18.902Z,100532.69
2023-01-20T10:55:07.118Z,100526.97
2023-01-20T10:57:34.728Z,100529.88
2023-01-20T11:00:06.807Z,100533.03
2023-01-20T11:02:35.753Z,100533.84
2023-01-20T11:05:16.531Z,100538.84
2023-01-20T11:07:44.452Z,100536.19
2023-01-20T11:10:21.839Z,100535.38
2023-01-20T11:12:50.220Z,100544.31
2023-01-20T11:15:22.313Z,100548.41
2023-01-20T11:18:16.589Z,100543.06
2023-01-20T11:21:10.817Z,100541.22
2023-01-20T11:23:52.405Z,100549.25
2023-01-20T11:26:22.326Z,100553.78
2023-01-20T11:28:57.969Z,100555.25
2023-01-20T11:31:45.516Z,100550.94
2023-01-20T11:34:35.839Z,100552.84
2023-01-20T11:37:05.357Z,100553.84
2023-01-20T11:39:50.163Z,100554.69
2023-01-20T11:42:17.958Z,100562.53
2023-01-20T11:45:20.712Z,100556.75
2023-01-20T11:48:00.683Z,100571.59
2023-01-20T11:50:33.703Z,100566.66
2023-01-20T11:53:15.915Z,100569.94
2023-01-20T11:55:50.401Z,100571.16
2023-01-20T11:58:20.259Z,100577.38
2023-01-20T12:00:47.234Z,100586.22
2023-01-20T12:03:32.830Z,100587.66
2023-01-20T12:06:02.902Z,100590.94
2023-01-20T12:08:51.230Z,100588.03
2023-01-20T12:11:27.530Z,100592.97
2023-01-20T12:14:20.719Z,100598.75
2023-01-20T12:16:55.369Z,100602.25
2023-01-20T12:19:30.010Z,100602.47
2023-01-20T12:22:03.246Z,100601.22
2023-01-20T12:25:04.403Z,100597.09
2023-01-20T12:27:31.123Z,100600.00
2023-01-20T12:30:03.364Z,100599.56
2023-01-20T12:32:31.644Z,100603.28
2023-01-20T12:34:58.150Z,100605.56
2023-01-20T12:37:55.097Z,100608.63
2023-01-20T12:40:21.500Z,100610.91
2023-01-20T12:43:03.157Z,100604.50
2023-01-20T12:45:37.384Z,100608.00
2023-01-20T12:48:20.841Z,100612.72
2023-01-20T12:51:01.553Z,100613.50
2023-01-20T12:54:05.013Z,100616.78
2023-01-20T12:56:40.534Z,100611.84
2023-01-20T12:59:36.741Z,100615.16
2023-01-20T13:02:37.772Z,100617.63
2023-01-20T13:05:48.838Z,100620.31
2023-01-20T13:08:24.632Z,100617.63
2023-01-20T13:11:26.223Z,100617.63
2023-01-20T13:14:16.047Z,100624.00
2023-01-20T13:17:08.391Z,100637.00
2023-01-20T13:19:41.518Z,100638.09
2023-01-20T13:22:12.603Z,100632.56
2023-01-20T13:24:43.388Z,100638.34
2023-01-20T13:27:12.161Z,100640.44
2023-01-20T13:29:53.450Z,100636.91
2023-01-20T13:32:43.737Z,100643.34
2023-01-20T13:35:25.262Z,100649.97
2023-01-20T13:37:59.978Z,100644.16
2023-01-20T13:40:38.459Z,100652.00
2023-01-20T13:43:23.893Z,100651.56
2023-01-20T13:46:15.192Z,100653.19
2023-01-20T13:49:13.467Z,100670.50
2023-01-20T13:51:45.188Z,100671.22
2023-01-20T13:54:29.116Z,100666.03
2023-01-20T13:57:23.133Z,100667.03
2023-01-20T13:59:50.398Z,100672.50
2023-01-20T14:02:25.089Z,100683.81
2023-01-20T14:04:52.995Z,100679.41
2023-01-20T14:07:30.909Z,100690.72
2023-01-20T14:10:00.410Z,100694.00
2023-01-20T14:12:27.385Z,100693.22
2023-01-20T14:14:54.750Z,100689.19
2023-01-20T14:17:23.664Z,100689.66
2023-01-20T14:19:53.921Z,100688.09
2023-01-20T14:22:26.082Z,100686.53
2023-01-20T14:24:59.971Z,100689.47
2023-01-20T14:27:32.016Z,100686.59
2023-01-20T14:30:14.476Z,100694.44
2023-01-20T14:32:41.590Z,100692.13
2023-01-20T14:35:28.139Z,100705.53
2023-01-20T14:37:55.003Z,100699.66
2023-01-20T14:40:31.161Z,100701.06
2023-01-20T14:43:24.164Z,100708.66
2023-01-20T14:45:52.144Z,100710.63
2023-01-20T14:48:33.256Z,100720.00
2023-01-20T14:51:04.190Z,100730.25
2023-01-20T14:53:30.782Z,100731.44
2023-01-20T14:56:02.997Z,100739.00
2023-01-20T14:58:30.689Z,100750.81
2023-01-20T15:01:01.929Z,100749.09
2023-01-20T15:03:32.654Z,100765.03
2023-01-20T15:06:22.543Z,100768.78
2023-01-20T15:09:05.036Z,100778.69
2023-01-20T15:11:33.517Z,100769.94
2023-01-20T15:14:08.266Z,100769.06
2023-01-20T15:16:38.848Z,100781.78
2023-01-20T15:19:17.420Z,100787.13
2023-01-20T15:21:56.997Z,100782.09
2023-01-20T15:24:24.797Z,100787.75
2023-01-20T15:26:53.829Z,100790.16
2023-01-20T15:29:25.753Z,100804.31
2023-01-20T15:31:53.638Z,100811.78
2023-01-20T15:34:21.188Z,100800.69
2023-01-20T15:36:49.030Z,100808.38
2023-01-20T15:39:17.440Z,100813.44
2023-01-20T15:41:45.179Z,100822.84
2023-01-20T15:44:11.673Z,100824.03
2023-01-20T15:46:39.967Z,100832.06
2023-01-20T15:49:15.175Z,100827.53
2023-01-20T15:51:42.731Z,100836.47
2023-01-20T15:54:10.167Z,100840.16
2023-01-20T15:56:39.528Z,100848.34
2023-01-20T15:59:17.739Z,100852.94
2023-01-20T16:01:50.212Z,100859.56
2023-01-20T16:04:17.199Z,100868.78
2023-01-20T16:06:44.127Z,100865.47
2023-01-20T16:09:40.089Z,100867.75
2023-01-20T16:12:10.392Z,100874.47
2023-01-20T16:14:36.866Z,100870.53
2023-01-20T16:17:03.370Z,100871.53
2023-01-20T16:19:29.802Z,100879.72
2023-01-20T16:21:56.256Z,100888.91
2023-01-20T16:24:22.767Z,100895.25
2023-01-20T16:26:49.304Z,100887.44
2023-01-20T16:29:15.845Z,100899.31
2023-01-20T16:31:42.378Z,100902.97
2023-01-20T16:34:08.918Z,100905.34
2023-01-20T16:36:35.381Z,100906.19
2023-01-20T16:39:01.901Z,100911.88
2023-01-20T16:41:30.973Z,100921.06
2023-01-20T16:43:58.512Z,100931.47
2023-01-20T16:46:27.583Z,100931.47
2023-01-20T16:49:01.896Z,100934.66
2023-01-20T16:51:29.627Z,100935.84
2023-01-20T16:53:57.198Z,100944.84
2023-01-20T16:56:29.640Z,100944.69
2023-01-20T16:58:57.909Z,100947.25
2023-01-20T17:01:25.706Z,100949.44
2023-01-20T17:03:54.619Z,100961.09
2023-01-20T17:06:23.746Z,100955.28
2023-01-20T17:08:53.000Z,100966.81
2023-01-20T17:11:34.281Z,100955.47
2023-01-20T17:14:05.995Z,100966.31
2023-01-20T17:16:33.284Z,100973.53
2023-01-20T17:19:01.324Z,100972.06
2023-01-20T17:21:30.017Z,100971.22
2023-01-20T17:24:02.281Z,100977.41
2023-01-20T17:26:29.560Z,100986.09
2023-01-20T17:29:04.023Z,100982.06
2023-01-20T17:31:36.585Z,100987.47
2023-01-20T17:34:09.457Z,100998.75
2023-01-20T17:36:36.097Z,101001.97
2023-01-20T17:39:05.443Z,101003.63
2023-01-20T17:41:32.928Z,101011.31
2023-01-20T17:43:59.618Z,101007.97
2023-01-20T17:46:29.574Z,101016.81
2023-01-20T17:48:57.365Z,101019.00
2023-01-20T17:51:26.184Z,101023.50
2023-01-20T17:53:52.723Z,101023.84
2023-01-20T17:56:21.403Z,101027.50
2023-01-20T17:58:48.988Z,101035.84
2023-01-20T18:01:24.410Z,101036.34
2023-01-20T18:03:52.530Z,101038.03
2023-01-20T18:06:21.680Z,101047.88
2023-01-20T18:08:52.074Z,101055.69
2023-01-20T18:11:22.959Z,101058.19
2023-01-20T18:13:51.500Z,101058.38
2023-01-20T18:16:20.225Z,101063.88
2023-01-20T18:18:48.557Z,101068.53
2023-01-20T18:21:17.571Z,101068.53
2023-01-20T18:23:45.162Z,101079.56
2023-01-20T18:26:13.976Z,101083.22
2023-01-20T18:28:41.614Z,101082.38
2023-01-20T18:31:14.340Z,101083.88
2023-01-20T18:33:47.553Z,101078.22
2023-01-20T18:36:25.078Z,101092.19
2023-01-20T18:38:56.846Z,101092.53
2023-01-20T18:41:24.715Z,101098.22
2023-01-20T18:43:51.393Z,101100.03
2023-01-20T18:46:18.696Z,101109.69
2023-01-20T18:48:47.321Z,101108.88
2023-01-20T18:51:16.057Z,101117.19
2023-01-20T18:53:44.472Z,101120.19
2023-01-20T18:56:13.797Z,101116.91
2023-01-20T18:58:47.239Z,101120.22
2023-01-20T19:01:16.917Z,101127.38
2023-01-20T19:03:46.069Z,101131.34
2023-01-20T19:06:16.407Z,101132.22
2023-01-20T19:08:44.861Z,101131.06
2023-01-20T19:11:17.769Z,101134.53
2023-01-20T19:13:45.999Z,101139.69
2023-01-20T19:16:13.251Z,101138.22
2023-01-20T19:23:56.800Z,101136.53
2023-01-20T19:26:24.904Z,101135.22
2023-01-20T19:29:02.762Z,101140.19
2023-01-20T19:31:38.278Z,101147.53
2023-01-20T19:34:06.150Z,101153.84
2023-01-20T19:36:33.183Z,101151.66
2023-01-20T19:39:01.138Z,101156.50
2023-01-20T19:41:35.928Z,101160.16
2023-01-20T19:44:04.593Z,101164.16
2023-01-20T19:46:34.212Z,101165.47
2023-01-20T19:49:02.392Z,101165.78
2023-01-20T19:51:29.255Z,101175.09
2023-01-20T19:53:58.009Z,101178.78
2023-01-20T19:56:26.414Z,101179.75
2023-01-20T19:58:53.846Z,101186.72
2023-01-20T20:01:21.527Z,101193.31
2023-01-20T20:03:49.983Z,101182.16
2023-01-20T20:06:28.642Z,101188.00
2023-01-20T20:09:03.415Z,101197.63
2023-01-20T20:11:30.712Z,101209.22
2023-01-20T20:13:58.802Z,101207.88
2023-01-20T20:16:27.613Z,101204.72
2023-01-20T20:18:55.230Z,101208.84
2023-01-20T20:21:22.139Z,101218.13
2023-01-20T20:23:54.108Z,101218.13
2023-01-20T20:26:22.689Z,101215.41
2023-01-20T20:29:05.567Z,101223.06
2023-01-20T20:31:34.316Z,101223.53
2023-01-20T20:34:02.258Z,101219.50
2023-01-20T20:36:30.939Z,101227.28
2023-01-20T20:38:58.870Z,101224.94
2023-01-20T20:41:29.117Z,101228.91
2023-01-20T20:43:56.265Z,101238.16
2023-01-20T20:46:22.797Z,101240.31
2023-01-20T20:48:49.291Z,101242.44
2023-01-20T20:51:16.871Z,101242.94
2023-01-20T20:53:44.108Z,101250.38
2023-01-20T20:56:13.377Z,101254.16
2023-01-20T20:58:55.280Z,101255.63
2023-01-20T21:01:26.849Z,101265.72
2023-01-20T21:03:54.049Z,101255.53
2023-01-20T21:06:22.697Z,101257.84
2023-01-20T21:08:49.618Z,101267.78
2023-01-20T21:11:16.151Z,101274.38
2023-01-20T21:13:42.868Z,101273.84
2023-01-20T21:16:14.390Z,101278.34
2023-01-20T21:18:41.523Z,101276.44
2023-01-20T21:21:12.007Z,101284.25
2023-01-20T21:23:40.697Z,101279.84
2023-01-20T21:26:10.355Z,101281.81
2023-01-20T21:28:37.079Z,101291.91
2023-01-20T21:31:09.092Z,101295.38
2023-01-20T21:33:39.910Z,101296.16
2023-01-20T21:36:09.048Z,101301.75
2023-01-20T21:38:37.365Z,101307.34
2023-01-20T21:41:10.076Z,101309.84
2023-01-20T21:43:56.964Z,101319.25
2023-01-20T21:46:24.399Z,101312.44
2023-01-20T21:49:09.521Z,101314.69
2023-01-20T21:51:54.557Z,101319.16
2023-01-20T21:54:21.340Z,101327.56
2023-01-20T21:56:48.607Z,101324.66
2023-01-20T21:59:15.238Z,101331.19
2023-01-20T22:01:41.801Z,101335.13
2023-01-20T22:04:08.323Z,101340.03
2023-01-20T22:06:34.918Z,101335.03
2023-01-20T22:09:01.787Z,101341.63
2023-01-20T22:11:28.487Z,101350.16
2023-01-20T22:13:58.531Z,101356.16
2023-01-20T22:16:25.753Z,101351.44
2023-01-20T22:18:53.645Z,101363.16
2023-01-20T22:21:22.293Z,101361.63
2023-01-20T22:23:48.922Z,101360.25
2023-01-20T22:26:15.458Z,101362.53
2023-01-20T22:28:42.802Z,101364.47
2023-01-20T22:31:17.249Z,101366.31
2023-01-20T22:33:43.827Z,101371.34
2023-01-20T22:36:10.381Z,101375.22
2023-01-20T22:38:36.866Z,101378.19
2023-01-20T22:41:08.414Z,101376.38
2023-01-20T22:43:35.412Z,101380.88
2023-01-20T22:46:03.066Z,101396.06
2023-01-20T22:48:32.051Z,101390.91
2023-01-20T22:51:04.861Z,101398.19
2023-01-20T22:53:31.531Z,101397.06
2023-01-20T22:56:06.087Z,101398.75
2023-01-20T22:58:32.963Z,101393.31
2023-01-20T23:00:59.881Z,101402.91
2023-01-20T23:03:26.914Z,101401.66
2023-01-20T23:05:56.952Z,101399.59
2023-01-20T23:08:27.910Z,101403.78
2023-01-20T23:11:02.373Z,101399.31
2023-01-20T23:13:31.792Z,101408.09
2023-01-20T23:15:58.280Z,101405.84
2023-01-20T23:18:25.463Z,101404.31
2023-01-20T23:20:54.013Z,101409.19
2023-01-20T23:23:21.892Z,101412.13
2023-01-20T23:25:48.459Z,101421.31
2023-01-20T23:28:15.504Z,101421.63
2023-01-20T23:30:42.591Z,101421.88
2023-01-20T23:33:10.056Z,101417.81
2023-01-20T23:35:39.096Z,101422.44
2023-01-20T23:38:09.260Z,101419.78
2023-01-20T23:40:36.355Z,101429.09
2023-01-20T23:43:02.955Z,101442.47
2023-01-20T23:45:29.523Z,101435.50
2023-01-20T23:47:56.142Z,101437.44
2023-01-20T23:50:22.858Z,101446.34
2023-01-20T23:52:49.367Z,101450.25
2023-01-20T23:55:16.079Z,101446.88
2023-01-20T23:57:42.584Z,101451.50
